sensor_id;sensor_type;location;lat;lon;timestamp;P1;durP1;ratioP1;P2;durP2;ratioP2
74459;SDS011;62902;48.854;9.292;2023-04-03T00:02:23;462.70;;;132.80;;
74459;SDS011;62902;48.854;9.292;2023-04-03T00:04:50;463.05;;;131.10;;
74459;SDS011;62902;48.854;9.292;2023-04-03T00:07:16;469.00;;;130.50;;
74459;SDS011;62902;48.854;9.292;2023-04-03T00:09:43;466.07;;;131.03;;
74459;SDS011;62902;48.854;9.292;2023-04-03T00:12:10;424.40;;;138.50;;
74459;SDS011;62902;48.854;9.292;2023-04-03T00:14:37;416.50;;;140.60;;
74459;SDS011;62902;48.854;9.292;2023-04-03T00:17:03;417.55;;;140.90;;
74459;SDS011;62902;48.854;9.292;2023-04-03T00:19:30;409.67;;;143.97;;
74459;SDS011;62902;48.854;9.292;2023-04-03T00:21:57;425.50;;;137.20;;
74459;SDS011;62902;48.854;9.292;2023-04-03T00:24:23;475.85;;;128.70;;
74459;SDS011;62902;48.854;9.292;2023-04-03T00:26:50;473.58;;;128.13;;
74459;SDS011;62902;48.854;9.292;2023-04-03T00:29:16;474.90;;;128.20;;
74459;SDS011;62902;48.854;9.292;2023-04-03T00:31:43;475.63;;;128.90;;
74459;SDS011;62902;48.854;9.292;2023-04-03T00:34:09;439.55;;;133.75;;
74459;SDS011;62902;48.854;9.292;2023-04-03T00:36:36;446.85;;;132.10;;
74459;SDS011;62902;48.854;9.292;2023-04-03T00:39:03;447.50;;;132.70;;
74459;SDS011;62902;48.854;9.292;2023-04-03T00:41:29;447.25;;;132.50;;
74459;SDS011;62902;48.854;9.292;2023-04-03T00:43:56;472.25;;;129.05;;
74459;SDS011;62902;48.854;9.292;2023-04-03T00:46:22;477.80;;;129.60;;
74459;SDS011;62902;48.854;9.292;2023-04-03T00:48:49;451.92;;;132.05;;
74459;SDS011;62902;48.854;9.292;2023-04-03T00:51:23;444.15;;;132.85;;
74459;SDS011;62902;48.854;9.292;2023-04-03T00:53:53;434.60;;;136.50;;
74459;SDS011;62902;48.854;9.292;2023-04-03T00:56:23;457.90;;;131.80;;
74459;SDS011;62902;48.854;9.292;2023-04-03T01:01:26;401.80;;;147.90;;
74459;SDS011;62902;48.854;9.292;2023-04-03T01:03:53;408.95;;;147.50;;
74459;SDS011;62902;48.854;9.292;2023-04-03T01:06:29;412.45;;;144.65;;
74459;SDS011;62902;48.854;9.292;2023-04-03T01:09:04;403.20;;;148.43;;
74459;SDS011;62902;48.854;9.292;2023-04-03T01:11:31;403.70;;;148.20;;
74459;SDS011;62902;48.854;9.292;2023-04-03T01:13:59;414.90;;;144.45;;
74459;SDS011;62902;48.854;9.292;2023-04-03T01:16:27;411.00;;;147.15;;
74459;SDS011;62902;48.854;9.292;2023-04-03T01:18:57;418.75;;;140.40;;
74459;SDS011;62902;48.854;9.292;2023-04-03T01:21:45;415.75;;;142.20;;
74459;SDS011;62902;48.854;9.292;2023-04-03T01:24:35;424.95;;;137.80;;
74459;SDS011;62902;48.854;9.292;2023-04-03T01:27:06;419.30;;;139.00;;
74459;SDS011;62902;48.854;9.292;2023-04-03T01:29:33;429.02;;;138.10;;
74459;SDS011;62902;48.854;9.292;2023-04-03T01:32:00;418.25;;;139.30;;
74459;SDS011;62902;48.854;9.292;2023-04-03T01:34:29;477.65;;;132.60;;
74459;SDS011;62902;48.854;9.292;2023-04-03T01:36:56;503.52;;;128.70;;
74459;SDS011;62902;48.854;9.292;2023-04-03T01:39:22;503.85;;;126.95;;
74459;SDS011;62902;48.854;9.292;2023-04-03T01:41:50;509.90;;;128.83;;
74459;SDS011;62902;48.854;9.292;2023-04-03T01:44:30;505.92;;;127.53;;
74459;SDS011;62902;48.854;9.292;2023-04-03T01:46:56;509.92;;;128.75;;
74459;SDS011;62902;48.854;9.292;2023-04-03T01:49:25;507.83;;;127.57;;
74459;SDS011;62902;48.854;9.292;2023-04-03T01:54:18;513.50;;;128.20;;
74459;SDS011;62902;48.854;9.292;2023-04-03T01:56:45;518.25;;;126.05;;
74459;SDS011;62902;48.854;9.292;2023-04-03T01:59:12;514.05;;;124.85;;
74459;SDS011;62902;48.854;9.292;2023-04-03T02:01:39;512.30;;;125.43;;
74459;SDS011;62902;48.854;9.292;2023-04-03T02:04:06;520.60;;;125.30;;
74459;SDS011;62902;48.854;9.292;2023-04-03T02:06:33;510.10;;;125.90;;
74459;SDS011;62902;48.854;9.292;2023-04-03T02:08:59;503.50;;;128.23;;
74459;SDS011;62902;48.854;9.292;2023-04-03T02:11:26;500.25;;;129.55;;
74459;SDS011;62902;48.854;9.292;2023-04-03T02:13:53;488.70;;;127.78;;
74459;SDS011;62902;48.854;9.292;2023-04-03T02:16:19;450.35;;;130.55;;
74459;SDS011;62902;48.854;9.292;2023-04-03T02:18:48;471.80;;;131.10;;
74459;SDS011;62902;48.854;9.292;2023-04-03T02:21:15;444.20;;;130.80;;
74459;SDS011;62902;48.854;9.292;2023-04-03T02:23:41;461.95;;;131.60;;
74459;SDS011;62902;48.854;9.292;2023-04-03T02:26:09;447.80;;;129.90;;
74459;SDS011;62902;48.854;9.292;2023-04-03T02:28:37;443.65;;;133.35;;
74459;SDS011;62902;48.854;9.292;2023-04-03T02:31:04;447.75;;;132.20;;
74459;SDS011;62902;48.854;9.292;2023-04-03T02:33:33;442.60;;;132.55;;
74459;SDS011;62902;48.854;9.292;2023-04-03T02:36:00;430.17;;;135.10;;
74459;SDS011;62902;48.854;9.292;2023-04-03T02:38:27;424.65;;;134.65;;
74459;SDS011;62902;48.854;9.292;2023-04-03T02:40:59;422.70;;;136.50;;
74459;SDS011;62902;48.854;9.292;2023-04-03T02:43:26;428.27;;;134.45;;
74459;SDS011;62902;48.854;9.292;2023-04-03T02:45:52;426.00;;;135.00;;
74459;SDS011;62902;48.854;9.292;2023-04-03T02:48:19;438.20;;;133.00;;
74459;SDS011;62902;48.854;9.292;2023-04-03T02:50:46;429.80;;;134.10;;
74459;SDS011;62902;48.854;9.292;2023-04-03T02:53:13;435.80;;;134.80;;
74459;SDS011;62902;48.854;9.292;2023-04-03T02:55:39;420.60;;;135.70;;
74459;SDS011;62902;48.854;9.292;2023-04-03T02:58:06;419.95;;;136.15;;
74459;SDS011;62902;48.854;9.292;2023-04-03T03:00:35;421.20;;;135.80;;
74459;SDS011;62902;48.854;9.292;2023-04-03T03:03:02;413.75;;;137.75;;
74459;SDS011;62902;48.854;9.292;2023-04-03T03:05:28;369.87;;;158.50;;
74459;SDS011;62902;48.854;9.292;2023-04-03T03:07:56;396.17;;;142.17;;
74459;SDS011;62902;48.854;9.292;2023-04-03T03:10:23;409.17;;;140.10;;
74459;SDS011;62902;48.854;9.292;2023-04-03T03:12:49;404.10;;;142.20;;
74459;SDS011;62902;48.854;9.292;2023-04-03T03:15:16;435.20;;;133.80;;
74459;SDS011;62902;48.854;9.292;2023-04-03T03:17:43;421.20;;;138.45;;
74459;SDS011;62902;48.854;9.292;2023-04-03T03:20:10;446.75;;;132.48;;
74459;SDS011;62902;48.854;9.292;2023-04-03T03:22:37;469.03;;;130.27;;
74459;SDS011;62902;48.854;9.292;2023-04-03T03:25:04;420.20;;;135.70;;
74459;SDS011;62902;48.854;9.292;2023-04-03T03:27:31;403.23;;;139.75;;
74459;SDS011;62902;48.854;9.292;2023-04-03T03:29:57;399.45;;;141.30;;
74459;SDS011;62902;48.854;9.292;2023-04-03T03:32:24;463.73;;;129.77;;
74459;SDS011;62902;48.854;9.292;2023-04-03T03:34:50;455.83;;;131.57;;
74459;SDS011;62902;48.854;9.292;2023-04-03T03:37:17;456.93;;;130.83;;
74459;SDS011;62902;48.854;9.292;2023-04-03T03:39:44;425.35;;;134.85;;
74459;SDS011;62902;48.854;9.292;2023-04-03T03:42:10;460.60;;;129.35;;
74459;SDS011;62902;48.854;9.292;2023-04-03T03:44:37;440.40;;;133.05;;
74459;SDS011;62902;48.854;9.292;2023-04-03T03:47:04;432.60;;;133.85;;
74459;SDS011;62902;48.854;9.292;2023-04-03T03:49:32;423.87;;;136.10;;
74459;SDS011;62902;48.854;9.292;2023-04-03T03:52:00;381.87;;;149.03;;
74459;SDS011;62902;48.854;9.292;2023-04-03T03:54:27;456.50;;;129.80;;
74459;SDS011;62902;48.854;9.292;2023-04-03T03:56:53;469.85;;;128.63;;
74459;SDS011;62902;48.854;9.292;2023-04-03T03:59:23;438.65;;;133.80;;
74459;SDS011;62902;48.854;9.292;2023-04-03T04:01:49;454.20;;;131.45;;
74459;SDS011;62902;48.854;9.292;2023-04-03T04:04:16;482.70;;;128.00;;
74459;SDS011;62902;48.854;9.292;2023-04-03T04:06:43;474.73;;;127.70;;
74459;SDS011;62902;48.854;9.292;2023-04-03T04:09:09;473.52;;;129.60;;
74459;SDS011;62902;48.854;9.292;2023-04-03T04:11:36;430.60;;;136.65;;
74459;SDS011;62902;48.854;9.292;2023-04-03T04:14:03;414.07;;;143.83;;
74459;SDS011;62902;48.854;9.292;2023-04-03T04:16:30;417.93;;;139.27;;
74459;SDS011;62902;48.854;9.292;2023-04-03T04:19:02;466.90;;;130.10;;
74459;SDS011;62902;48.854;9.292;2023-04-03T04:21:30;415.05;;;141.25;;
74459;SDS011;62902;48.854;9.292;2023-04-03T04:23:59;416.10;;;142.65;;
74459;SDS011;62902;48.854;9.292;2023-04-03T04:26:26;467.15;;;134.80;;
74459;SDS011;62902;48.854;9.292;2023-04-03T04:28:53;413.20;;;141.50;;
74459;SDS011;62902;48.854;9.292;2023-04-03T04:31:20;436.17;;;133.98;;
74459;SDS011;62902;48.854;9.292;2023-04-03T04:33:47;449.85;;;133.15;;
74459;SDS011;62902;48.854;9.292;2023-04-03T04:36:14;440.83;;;132.40;;
74459;SDS011;62902;48.854;9.292;2023-04-03T04:38:43;433.60;;;132.27;;
74459;SDS011;62902;48.854;9.292;2023-04-03T04:41:10;429.20;;;133.95;;
74459;SDS011;62902;48.854;9.292;2023-04-03T04:43:37;461.37;;;130.60;;
74459;SDS011;62902;48.854;9.292;2023-04-03T04:46:08;465.20;;;130.80;;
74459;SDS011;62902;48.854;9.292;2023-04-03T04:48:42;468.47;;;127.23;;
74459;SDS011;62902;48.854;9.292;2023-04-03T04:51:10;468.92;;;129.23;;
74459;SDS011;62902;48.854;9.292;2023-04-03T04:53:37;468.25;;;127.50;;
74459;SDS011;62902;48.854;9.292;2023-04-03T04:56:05;472.77;;;128.02;;
74459;SDS011;62902;48.854;9.292;2023-04-03T04:58:33;476.63;;;127.10;;
74459;SDS011;62902;48.854;9.292;2023-04-03T05:01:01;470.52;;;127.60;;
74459;SDS011;62902;48.854;9.292;2023-04-03T05:03:35;426.70;;;134.87;;
74459;SDS011;62902;48.854;9.292;2023-04-03T05:06:02;428.90;;;133.30;;
74459;SDS011;62902;48.854;9.292;2023-04-03T05:08:31;443.90;;;131.33;;
74459;SDS011;62902;48.854;9.292;2023-04-03T05:10:59;422.15;;;137.00;;
74459;SDS011;62902;48.854;9.292;2023-04-03T05:13:26;422.60;;;134.90;;
74459;SDS011;62902;48.854;9.292;2023-04-03T05:15:54;428.45;;;133.85;;
74459;SDS011;62902;48.854;9.292;2023-04-03T05:18:21;426.10;;;133.25;;
74459;SDS011;62902;48.854;9.292;2023-04-03T05:20:49;422.55;;;135.05;;
74459;SDS011;62902;48.854;9.292;2023-04-03T05:23:18;435.83;;;133.10;;
74459;SDS011;62902;48.854;9.292;2023-04-03T05:25:45;424.75;;;135.30;;
74459;SDS011;62902;48.854;9.292;2023-04-03T05:28:13;464.45;;;129.15;;
74459;SDS011;62902;48.854;9.292;2023-04-03T05:30:40;452.15;;;131.75;;
74459;SDS011;62902;48.854;9.292;2023-04-03T05:33:07;466.30;;;128.95;;
74459;SDS011;62902;48.854;9.292;2023-04-03T05:35:45;439.70;;;134.15;;
74459;SDS011;62902;48.854;9.292;2023-04-03T05:38:17;444.55;;;133.18;;
74459;SDS011;62902;48.854;9.292;2023-04-03T05:40:43;452.67;;;132.50;;
74459;SDS011;62902;48.854;9.292;2023-04-03T05:43:10;444.88;;;132.40;;
74459;SDS011;62902;48.854;9.292;2023-04-03T05:45:39;460.85;;;130.90;;
74459;SDS011;62902;48.854;9.292;2023-04-03T05:48:06;457.30;;;129.70;;
74459;SDS011;62902;48.854;9.292;2023-04-03T05:50:33;408.77;;;139.20;;
74459;SDS011;62902;48.854;9.292;2023-04-03T05:53:00;444.75;;;133.25;;
74459;SDS011;62902;48.854;9.292;2023-04-03T05:55:30;454.20;;;131.00;;
74459;SDS011;62902;48.854;9.292;2023-04-03T05:57:57;435.93;;;134.17;;
74459;SDS011;62902;48.854;9.292;2023-04-03T06:00:23;405.17;;;137.70;;
74459;SDS011;62902;48.854;9.292;2023-04-03T06:02:59;477.95;;;129.55;;
74459;SDS011;62902;48.854;9.292;2023-04-03T06:05:27;464.30;;;129.30;;
74459;SDS011;62902;48.854;9.292;2023-04-03T06:07:54;467.90;;;129.30;;
74459;SDS011;62902;48.854;9.292;2023-04-03T06:10:20;469.85;;;129.00;;
74459;SDS011;62902;48.854;9.292;2023-04-03T06:12:47;464.67;;;129.47;;
74459;SDS011;62902;48.854;9.292;2023-04-03T06:15:14;496.60;;;127.68;;
74459;SDS011;62902;48.854;9.292;2023-04-03T06:17:40;505.65;;;127.10;;
74459;SDS011;62902;48.854;9.292;2023-04-03T06:20:07;502.47;;;127.77;;
74459;SDS011;62902;48.854;9.292;2023-04-03T06:22:35;473.50;;;127.25;;
74459;SDS011;62902;48.854;9.292;2023-04-03T06:25:02;474.10;;;127.50;;
74459;SDS011;62902;48.854;9.292;2023-04-03T06:27:29;475.10;;;128.53;;
74459;SDS011;62902;48.854;9.292;2023-04-03T06:29:56;489.48;;;127.90;;
74459;SDS011;62902;48.854;9.292;2023-04-03T06:32:22;474.23;;;127.95;;
74459;SDS011;62902;48.854;9.292;2023-04-03T06:34:49;472.83;;;128.00;;
74459;SDS011;62902;48.854;9.292;2023-04-03T06:37:17;459.80;;;130.40;;
74459;SDS011;62902;48.854;9.292;2023-04-03T06:39:46;457.27;;;131.23;;
74459;SDS011;62902;48.854;9.292;2023-04-03T06:42:13;460.80;;;129.20;;
74459;SDS011;62902;48.854;9.292;2023-04-03T06:44:50;462.67;;;128.63;;
74459;SDS011;62902;48.854;9.292;2023-04-03T06:47:17;461.25;;;129.75;;
74459;SDS011;62902;48.854;9.292;2023-04-03T06:49:43;457.95;;;131.57;;
74459;SDS011;62902;48.854;9.292;2023-04-03T06:52:10;488.50;;;126.30;;
74459;SDS011;62902;48.854;9.292;2023-04-03T06:54:38;487.77;;;125.68;;
74459;SDS011;62902;48.854;9.292;2023-04-03T06:57:06;492.40;;;126.15;;
74459;SDS011;62902;48.854;9.292;2023-04-03T06:59:34;491.23;;;125.55;;
74459;SDS011;62902;48.854;9.292;2023-04-03T07:02:01;468.90;;;124.95;;
74459;SDS011;62902;48.854;9.292;2023-04-03T07:04:27;480.83;;;128.93;;
74459;SDS011;62902;48.854;9.292;2023-04-03T07:06:54;438.20;;;133.90;;
74459;SDS011;62902;48.854;9.292;2023-04-03T07:09:21;416.03;;;142.63;;
74459;SDS011;62902;48.854;9.292;2023-04-03T07:11:48;424.00;;;140.15;;
74459;SDS011;62902;48.854;9.292;2023-04-03T07:14:14;437.95;;;136.15;;
74459;SDS011;62902;48.854;9.292;2023-04-03T07:16:41;429.10;;;139.50;;
74459;SDS011;62902;48.854;9.292;2023-04-03T07:19:08;432.30;;;136.05;;
74459;SDS011;62902;48.854;9.292;2023-04-03T07:21:35;426.55;;;139.25;;
74459;SDS011;62902;48.854;9.292;2023-04-03T07:24:01;380.50;;;162.95;;
74459;SDS011;62902;48.854;9.292;2023-04-03T07:26:28;428.90;;;138.90;;
74459;SDS011;62902;48.854;9.292;2023-04-03T07:28:55;375.10;;;161.50;;
74459;SDS011;62902;48.854;9.292;2023-04-03T07:31:21;416.10;;;142.50;;
74459;SDS011;62902;48.854;9.292;2023-04-03T07:33:49;411.20;;;149.60;;
74459;SDS011;62902;48.854;9.292;2023-04-03T07:36:17;470.80;;;131.75;;
74459;SDS011;62902;48.854;9.292;2023-04-03T07:38:45;461.37;;;133.43;;
74459;SDS011;62902;48.854;9.292;2023-04-03T07:41:15;448.50;;;135.80;;
74459;SDS011;62902;48.854;9.292;2023-04-03T07:43:44;474.80;;;131.50;;
74459;SDS011;62902;48.854;9.292;2023-04-03T07:46:11;458.70;;;135.93;;
74459;SDS011;62902;48.854;9.292;2023-04-03T07:48:38;446.33;;;136.10;;
74459;SDS011;62902;48.854;9.292;2023-04-03T07:51:05;471.33;;;132.90;;
74459;SDS011;62902;48.854;9.292;2023-04-03T07:53:31;444.30;;;136.50;;
74459;SDS011;62902;48.854;9.292;2023-04-03T07:55:58;441.77;;;137.00;;
74459;SDS011;62902;48.854;9.292;2023-04-03T07:58:25;443.98;;;136.95;;
74459;SDS011;62902;48.854;9.292;2023-04-03T08:00:53;419.25;;;141.25;;
74459;SDS011;62902;48.854;9.292;2023-04-03T08:03:19;431.90;;;139.00;;
74459;SDS011;62902;48.854;9.292;2023-04-03T08:05:47;450.70;;;133.30;;
74459;SDS011;62902;48.854;9.292;2023-04-03T08:08:15;447.30;;;133.80;;
74459;SDS011;62902;48.854;9.292;2023-04-03T08:10:52;442.13;;;136.25;;
74459;SDS011;62902;48.854;9.292;2023-04-03T08:13:20;444.10;;;134.60;;
74459;SDS011;62902;48.854;9.292;2023-04-03T08:15:47;462.60;;;133.05;;
74459;SDS011;62902;48.854;9.292;2023-04-03T08:18:14;432.88;;;139.38;;
74459;SDS011;62902;48.854;9.292;2023-04-03T08:20:41;452.60;;;133.70;;
74459;SDS011;62902;48.854;9.292;2023-04-03T08:23:08;440.40;;;136.00;;
74459;SDS011;62902;48.854;9.292;2023-04-03T08:25:39;443.93;;;135.10;;
74459;SDS011;62902;48.854;9.292;2023-04-03T08:28:07;450.80;;;134.90;;
74459;SDS011;62902;48.854;9.292;2023-04-03T08:30:34;443.75;;;136.20;;
74459;SDS011;62902;48.854;9.292;2023-04-03T08:33:01;443.40;;;136.30;;
74459;SDS011;62902;48.854;9.292;2023-04-03T08:35:28;448.10;;;135.10;;
74459;SDS011;62902;48.854;9.292;2023-04-03T08:37:55;442.50;;;136.10;;
74459;SDS011;62902;48.854;9.292;2023-04-03T08:40:23;416.97;;;144.17;;
74459;SDS011;62902;48.854;9.292;2023-04-03T08:48:06;453.30;;;136.70;;
74459;SDS011;62902;48.854;9.292;2023-04-03T08:50:54;458.65;;;135.45;;
74459;SDS011;62902;48.854;9.292;2023-04-03T08:53:29;467.88;;;132.65;;
74459;SDS011;62902;48.854;9.292;2023-04-03T08:55:58;496.15;;;131.70;;
74459;SDS011;62902;48.854;9.292;2023-04-03T08:58:30;498.30;;;131.33;;
74459;SDS011;62902;48.854;9.292;2023-04-03T09:01:00;498.10;;;132.50;;
74459;SDS011;62902;48.854;9.292;2023-04-03T09:03:30;505.20;;;128.57;;
74459;SDS011;62902;48.854;9.292;2023-04-03T09:08:37;504.15;;;132.20;;
74459;SDS011;62902;48.854;9.292;2023-04-03T09:14:00;475.77;;;132.77;;
74459;SDS011;62902;48.854;9.292;2023-04-03T09:22:31;463.58;;;140.43;;
74459;SDS011;62902;48.854;9.292;2023-04-03T09:27:41;459.20;;;137.50;;
74459;SDS011;62902;48.854;9.292;2023-04-03T09:30:18;452.05;;;138.10;;
74459;SDS011;62902;48.854;9.292;2023-04-03T09:32:48;478.65;;;131.60;;
74459;SDS011;62902;48.854;9.292;2023-04-03T09:38:13;478.13;;;130.82;;
74459;SDS011;62902;48.854;9.292;2023-04-03T09:45:52;473.20;;;130.77;;
74459;SDS011;62902;48.854;9.292;2023-04-03T09:48:20;502.60;;;125.90;;
74459;SDS011;62902;48.854;9.292;2023-04-03T10:04:06;498.10;;;128.60;;
74459;SDS011;62902;48.854;9.292;2023-04-03T10:06:44;503.33;;;128.48;;
74459;SDS011;62902;48.854;9.292;2023-04-03T10:09:20;470.13;;;131.30;;
74459;SDS011;62902;48.854;9.292;2023-04-03T10:14:34;482.20;;;133.37;;
74459;SDS011;62902;48.854;9.292;2023-04-03T10:17:09;479.95;;;134.35;;
74459;SDS011;62902;48.854;9.292;2023-04-03T10:22:20;477.80;;;131.15;;
74459;SDS011;62902;48.854;9.292;2023-04-03T10:33:25;464.20;;;133.90;;
74459;SDS011;62902;48.854;9.292;2023-04-03T10:36:10;458.35;;;134.65;;
74459;SDS011;62902;48.854;9.292;2023-04-03T10:50:38;379.87;;;165.00;;
74459;SDS011;62902;48.854;9.292;2023-04-03T10:55:39;462.10;;;132.85;;
74459;SDS011;62902;48.854;9.292;2023-04-03T10:58:12;450.40;;;134.40;;
74459;SDS011;62902;48.854;9.292;2023-04-03T11:00:46;460.90;;;133.32;;
74459;SDS011;62902;48.854;9.292;2023-04-03T11:03:16;459.00;;;135.40;;
74459;SDS011;62902;48.854;9.292;2023-04-03T11:05:57;460.05;;;133.50;;
74459;SDS011;62902;48.854;9.292;2023-04-03T11:08:28;445.43;;;134.83;;
74459;SDS011;62902;48.854;9.292;2023-04-03T11:11:08;444.55;;;136.10;;
74459;SDS011;62902;48.854;9.292;2023-04-03T11:13:43;445.50;;;136.40;;
74459;SDS011;62902;48.854;9.292;2023-04-03T11:16:16;447.40;;;135.10;;
74459;SDS011;62902;48.854;9.292;2023-04-03T11:18:49;449.70;;;134.00;;
74459;SDS011;62902;48.854;9.292;2023-04-03T11:21:25;449.53;;;135.30;;
74459;SDS011;62902;48.854;9.292;2023-04-03T11:23:57;424.40;;;141.55;;
74459;SDS011;62902;48.854;9.292;2023-04-03T11:26:27;443.95;;;135.95;;
74459;SDS011;62902;48.854;9.292;2023-04-03T11:28:58;443.60;;;133.55;;
74459;SDS011;62902;48.854;9.292;2023-04-03T11:34:36;451.73;;;135.23;;
74459;SDS011;62902;48.854;9.292;2023-04-03T11:40:28;442.85;;;136.63;;
74459;SDS011;62902;48.854;9.292;2023-04-03T11:43:03;446.20;;;135.13;;
74459;SDS011;62902;48.854;9.292;2023-04-03T11:45:34;427.00;;;140.20;;
74459;SDS011;62902;48.854;9.292;2023-04-03T11:48:41;447.25;;;136.90;;
74459;SDS011;62902;48.854;9.292;2023-04-03T11:50:57;448.20;;;135.50;;
74459;SDS011;62902;48.854;9.292;2023-04-03T11:53:25;435.53;;;138.90;;
74459;SDS011;62902;48.854;9.292;2023-04-03T12:01:55;467.60;;;132.80;;
74459;SDS011;62902;48.854;9.292;2023-04-03T12:04:26;487.90;;;130.93;;
74459;SDS011;62902;48.854;9.292;2023-04-03T12:12:29;467.25;;;133.40;;
74459;SDS011;62902;48.854;9.292;2023-04-03T12:15:21;465.27;;;131.63;;
74459;SDS011;62902;48.854;9.292;2023-04-03T12:21:13;496.15;;;130.85;;
74459;SDS011;62902;48.854;9.292;2023-04-03T12:23:58;501.83;;;129.23;;
74459;SDS011;62902;48.854;9.292;2023-04-03T12:26:38;501.67;;;129.67;;
74459;SDS011;62902;48.854;9.292;2023-04-03T12:34:41;498.65;;;130.10;;
74459;SDS011;62902;48.854;9.292;2023-04-03T12:45:41;496.27;;;132.27;;
74459;SDS011;62902;48.854;9.292;2023-04-03T12:48:15;496.17;;;131.45;;
74459;SDS011;62902;48.854;9.292;2023-04-03T12:50:43;495.45;;;131.98;;
74459;SDS011;62902;48.854;9.292;2023-04-03T12:53:13;499.90;;;132.10;;
74459;SDS011;62902;48.854;9.292;2023-04-03T12:55:43;497.52;;;131.80;;
74459;SDS011;62902;48.854;9.292;2023-04-03T12:58:16;500.08;;;132.38;;
74459;SDS011;62902;48.854;9.292;2023-04-03T13:03:27;497.30;;;133.50;;
74459;SDS011;62902;48.854;9.292;2023-04-03T13:05:59;498.50;;;134.15;;
74459;SDS011;62902;48.854;9.292;2023-04-03T13:08:26;497.75;;;133.48;;
74459;SDS011;62902;48.854;9.292;2023-04-03T13:10:57;491.80;;;136.80;;
74459;SDS011;62902;48.854;9.292;2023-04-03T13:13:25;491.70;;;135.10;;
74459;SDS011;62902;48.854;9.292;2023-04-03T13:15:53;495.40;;;135.75;;
74459;SDS011;62902;48.854;9.292;2023-04-03T13:20:59;443.60;;;142.80;;
74459;SDS011;62902;48.854;9.292;2023-04-03T13:23:29;476.93;;;133.10;;
74459;SDS011;62902;48.854;9.292;2023-04-03T13:25:57;464.98;;;134.27;;
74459;SDS011;62902;48.854;9.292;2023-04-03T13:28:28;461.27;;;135.02;;
74459;SDS011;62902;48.854;9.292;2023-04-03T13:30:59;468.10;;;133.90;;
74459;SDS011;62902;48.854;9.292;2023-04-03T13:33:31;400.00;;;161.95;;
74459;SDS011;62902;48.854;9.292;2023-04-03T13:38:34;401.87;;;157.53;;
74459;SDS011;62902;48.854;9.292;2023-04-03T13:41:04;408.20;;;154.10;;
74459;SDS011;62902;48.854;9.292;2023-04-03T13:43:47;417.50;;;149.68;;
74459;SDS011;62902;48.854;9.292;2023-04-03T13:48:43;408.50;;;153.88;;
74459;SDS011;62902;48.854;9.292;2023-04-03T13:53:43;411.00;;;149.35;;
74459;SDS011;62902;48.854;9.292;2023-04-03T13:56:18;407.20;;;151.95;;
74459;SDS011;62902;48.854;9.292;2023-04-03T13:59:20;410.15;;;150.90;;
74459;SDS011;62902;48.854;9.292;2023-04-03T14:01:54;410.63;;;151.40;;
74459;SDS011;62902;48.854;9.292;2023-04-03T14:04:28;411.45;;;149.15;;
74459;SDS011;62902;48.854;9.292;2023-04-03T14:06:57;421.13;;;145.63;;
74459;SDS011;62902;48.854;9.292;2023-04-03T14:09:24;418.85;;;147.05;;
74459;SDS011;62902;48.854;9.292;2023-04-03T14:11:54;422.70;;;145.70;;
74459;SDS011;62902;48.854;9.292;2023-04-03T14:14:24;420.40;;;146.40;;
74459;SDS011;62902;48.854;9.292;2023-04-03T14:16:55;423.50;;;145.90;;
74459;SDS011;62902;48.854;9.292;2023-04-03T14:19:28;425.20;;;145.90;;
74459;SDS011;62902;48.854;9.292;2023-04-03T14:21:56;425.00;;;145.70;;
74459;SDS011;62902;48.854;9.292;2023-04-03T14:24:24;416.60;;;148.20;;
74459;SDS011;62902;48.854;9.292;2023-04-03T14:26:54;445.90;;;141.85;;
74459;SDS011;62902;48.854;9.292;2023-04-03T14:29:21;458.83;;;138.07;;
74459;SDS011;62902;48.854;9.292;2023-04-03T14:31:49;445.50;;;142.00;;
74459;SDS011;62902;48.854;9.292;2023-04-03T14:34:29;431.58;;;143.55;;
74459;SDS011;62902;48.854;9.292;2023-04-03T14:36:55;470.77;;;138.07;;
74459;SDS011;62902;48.854;9.292;2023-04-03T14:39:23;456.63;;;135.77;;
74459;SDS011;62902;48.854;9.292;2023-04-03T14:41:50;463.58;;;141.82;;
74459;SDS011;62902;48.854;9.292;2023-04-03T14:44:16;478.10;;;140.20;;
74459;SDS011;62902;48.854;9.292;2023-04-03T14:46:43;477.25;;;139.60;;
74459;SDS011;62902;48.854;9.292;2023-04-03T14:49:23;470.58;;;141.38;;
74459;SDS011;62902;48.854;9.292;2023-04-03T14:51:52;444.10;;;138.55;;
74459;SDS011;62902;48.854;9.292;2023-04-03T14:54:21;481.77;;;137.43;;
74459;SDS011;62902;48.854;9.292;2023-04-03T14:56:52;473.80;;;139.70;;
74459;SDS011;62902;48.854;9.292;2023-04-03T14:59:20;476.77;;;138.80;;
74459;SDS011;62902;48.854;9.292;2023-04-03T15:01:47;471.70;;;140.90;;
74459;SDS011;62902;48.854;9.292;2023-04-03T15:04:16;471.00;;;139.50;;
74459;SDS011;62902;48.854;9.292;2023-04-03T15:06:44;466.85;;;141.35;;
74459;SDS011;62902;48.854;9.292;2023-04-03T15:09:28;408.75;;;157.95;;
74459;SDS011;62902;48.854;9.292;2023-04-03T15:11:55;411.40;;;157.25;;
74459;SDS011;62902;48.854;9.292;2023-04-03T15:14:22;408.75;;;156.30;;
74459;SDS011;62902;48.854;9.292;2023-04-03T15:17:05;408.60;;;154.00;;
74459;SDS011;62902;48.854;9.292;2023-04-03T15:19:37;410.90;;;153.55;;
74459;SDS011;62902;48.854;9.292;2023-04-03T15:22:04;419.70;;;151.00;;
74459;SDS011;62902;48.854;9.292;2023-04-03T15:24:31;440.50;;;142.80;;
74459;SDS011;62902;48.854;9.292;2023-04-03T15:26:57;437.75;;;142.85;;
74459;SDS011;62902;48.854;9.292;2023-04-03T15:29:24;436.05;;;141.05;;
74459;SDS011;62902;48.854;9.292;2023-04-03T15:31:51;434.67;;;141.27;;
74459;SDS011;62902;48.854;9.292;2023-04-03T15:34:19;438.43;;;139.70;;
74459;SDS011;62902;48.854;9.292;2023-04-03T15:36:48;444.50;;;140.30;;
74459;SDS011;62902;48.854;9.292;2023-04-03T15:39:16;453.90;;;140.15;;
74459;SDS011;62902;48.854;9.292;2023-04-03T15:41:42;461.73;;;138.03;;
74459;SDS011;62902;48.854;9.292;2023-04-03T15:44:10;465.07;;;136.20;;
74459;SDS011;62902;48.854;9.292;2023-04-03T15:46:37;465.00;;;134.05;;
74459;SDS011;62902;48.854;9.292;2023-04-03T15:49:04;486.33;;;135.50;;
74459;SDS011;62902;48.854;9.292;2023-04-03T15:51:31;441.70;;;142.20;;
74459;SDS011;62902;48.854;9.292;2023-04-03T15:53:58;441.70;;;142.10;;
74459;SDS011;62902;48.854;9.292;2023-04-03T15:56:25;442.80;;;141.20;;
74459;SDS011;62902;48.854;9.292;2023-04-03T15:58:52;442.85;;;142.45;;
74459;SDS011;62902;48.854;9.292;2023-04-03T16:01:18;435.65;;;143.35;;
74459;SDS011;62902;48.854;9.292;2023-04-03T16:03:45;436.95;;;141.63;;
74459;SDS011;62902;48.854;9.292;2023-04-03T16:06:17;480.73;;;136.73;;
74459;SDS011;62902;48.854;9.292;2023-04-03T16:08:45;485.17;;;137.30;;
74459;SDS011;62902;48.854;9.292;2023-04-03T16:11:12;484.63;;;136.93;;